createdAt,value
2019-06-25T00:00:06.689Z,0.00
2019-06-25T00:01:06.668Z,0.00
2019-06-25T00:02:06.652Z,0.00
2019-06-25T00:03:06.634Z,0.00
2019-06-25T00:04:06.611Z,0.00
2019-06-25T00:05:27.592Z,0.00
2019-06-25T00:06:06.575Z,0.00
2019-06-25T00:07:06.559Z,0.00
2019-06-25T00:08:06.538Z,0.00
2019-06-25T00:09:06.520Z,0.00
2019-06-25T00:10:06.501Z,0.00
2019-06-25T00:11:27.486Z,0.00
2019-06-25T00:12:06.467Z,0.00
2019-06-25T00:13:06.446Z,0.00
2019-06-25T00:14:06.434Z,0.00
2019-06-25T00:15:06.404Z,0.00
2019-06-25T00:16:06.389Z,0.00
2019-06-25T00:17:27.378Z,0.00
2019-06-25T00:18:06.355Z,0.00
2019-06-25T00:19:06.342Z,0.00
2019-06-25T00:20:06.316Z,0.00
2019-06-25T00:21:06.297Z,0.00
2019-06-25T00:22:06.276Z,0.00
2019-06-25T00:23:27.259Z,0.00
2019-06-25T00:24:06.239Z,0.00
2019-06-25T00:25:06.226Z,0.00
2019-06-25T00:26:06.206Z,0.00
2019-06-25T00:27:06.182Z,0.00
2019-06-25T00:28:06.169Z,0.00
2019-06-25T00:29:27.146Z,0.00
2019-06-25T00:30:06.134Z,0.00
2019-06-25T00:31:06.107Z,0.00
2019-06-25T00:32:06.093Z,0.00
2019-06-25T00:33:06.072Z,0.00
2019-06-25T00:34:06.053Z,0.00
2019-06-25T00:35:27.037Z,0.00
2019-06-25T00:36:06.018Z,0.00
2019-06-25T00:37:05.997Z,0.00
2019-06-25T00:38:05.976Z,0.00
2019-06-25T00:39:05.960Z,0.00
2019-06-25T00:40:05.943Z,0.00
2019-06-25T00:41:26.920Z,0.00
2019-06-25T00:42:05.924Z,0.00
2019-06-25T00:43:05.892Z,0.00
2019-06-25T00:44:05.867Z,0.00
2019-06-25T00:45:05.851Z,0.00
2019-06-25T00:46:05.826Z,0.00
2019-06-25T00:47:26.810Z,0.00
2019-06-25T00:48:05.794Z,0.00
2019-06-25T00:49:05.777Z,0.00
2019-06-25T00:50:05.754Z,0.00
2019-06-25T00:51:05.731Z,0.00
2019-06-25T00:52:05.722Z,0.00
2019-06-25T00:53:26.696Z,0.00
2019-06-25T00:54:05.672Z,0.00
2019-06-25T00:55:05.655Z,0.00
2019-06-25T00:56:05.637Z,0.00
2019-06-25T00:57:05.619Z,0.00
2019-06-25T00:58:05.597Z,0.00
2019-06-25T00:59:27.477Z,0.00
2019-06-25T01:00:12.903Z,0.00
2019-06-25T01:01:05.544Z,0.00
2019-06-25T01:02:05.537Z,0.00
2019-06-25T01:03:05.500Z,0.00
2019-06-25T01:04:05.484Z,0.00
2019-06-25T01:05:26.474Z,0.00
2019-06-25T01:06:05.447Z,0.00
2019-06-25T01:07:05.537Z,0.00
2019-06-25T01:08:05.411Z,0.00
2019-06-25T01:09:05.392Z,0.00
2019-06-25T01:10:05.373Z,0.00
2019-06-25T01:11:26.354Z,0.00
2019-06-25T01:12:05.335Z,0.00
2019-06-25T01:13:05.315Z,0.00
2019-06-25T01:14:05.294Z,0.00
2019-06-25T01:15:05.276Z,0.00
2019-06-25T01:16:05.258Z,0.00
2019-06-25T01:17:26.355Z,0.00
2019-06-25T01:18:05.218Z,0.00
2019-06-25T01:19:05.198Z,0.00
2019-06-25T01:20:05.178Z,0.00
2019-06-25T01:21:05.163Z,0.00
2019-06-25T01:22:05.144Z,0.00
2019-06-25T01:23:26.126Z,0.00
2019-06-25T01:24:05.106Z,0.00
2019-06-25T01:25:05.151Z,0.00
2019-06-25T01:26:05.230Z,0.00
2019-06-25T01:27:05.045Z,0.00
2019-06-25T01:28:05.042Z,0.00
2019-06-25T01:29:26.015Z,0.00
2019-06-25T01:30:05.077Z,0.00
2019-06-25T01:31:04.969Z,0.00
2019-06-25T01:32:04.962Z,0.00
2019-06-25T01:33:04.935Z,0.00
2019-06-25T01:34:04.911Z,0.00
2019-06-25T01:35:25.900Z,0.00
2019-06-25T01:36:05.485Z,0.00
2019-06-25T01:37:04.858Z,0.00
2019-06-25T01:38:04.834Z,0.00
2019-06-25T01:39:04.815Z,0.00
2019-06-25T01:40:04.797Z,0.00
2019-06-25T01:41:25.783Z,0.00
2019-06-25T01:42:04.758Z,0.00
2019-06-25T01:43:04.742Z,0.00
2019-06-25T01:44:04.722Z,0.00
2019-06-25T01:45:04.752Z,0.00
2019-06-25T01:46:04.684Z,0.00
2019-06-25T01:47:25.668Z,0.00
2019-06-25T01:48:04.646Z,0.00
2019-06-25T01:49:04.626Z,0.00
2019-06-25T01:50:04.607Z,0.00
2019-06-25T01:51:04.588Z,0.00
2019-06-25T01:52:04.566Z,0.00
2019-06-25T01:53:25.555Z,0.00
2019-06-25T01:54:04.533Z,0.00
2019-06-25T01:55:04.517Z,0.00
2019-06-25T01:56:04.489Z,0.00
2019-06-25T01:57:04.476Z,0.00
2019-06-25T01:58:04.453Z,0.00
2019-06-25T01:59:25.449Z,0.00
2019-06-25T02:00:04.422Z,0.00
2019-06-25T02:01:04.397Z,0.00
2019-06-25T02:02:04.379Z,0.00
2019-06-25T02:03:04.362Z,0.00
2019-06-25T02:04:04.344Z,0.00
2019-06-25T02:05:25.324Z,0.00
2019-06-25T02:06:04.301Z,0.00
2019-06-25T02:07:04.282Z,0.00
2019-06-25T02:08:04.304Z,0.00
2019-06-25T02:09:04.243Z,0.00
2019-06-25T02:10:04.338Z,0.00
2019-06-25T02:11:25.211Z,0.00
2019-06-25T02:12:04.190Z,0.00
2019-06-25T02:13:04.169Z,0.00
2019-06-25T02:14:04.148Z,0.00
2019-06-25T02:15:04.181Z,0.00
2019-06-25T02:16:04.108Z,0.00
2019-06-25T02:17:25.109Z,0.00
2019-06-25T02:18:04.092Z,0.00
2019-06-25T02:19:04.046Z,0.00
2019-06-25T02:20:04.033Z,0.00
2019-06-25T02:21:04.013Z,0.00
2019-06-25T02:22:04.042Z,0.00
2019-06-25T02:23:24.983Z,0.00
2019-06-25T02:24:03.956Z,0.00
2019-06-25T02:25:03.944Z,0.00
2019-06-25T02:26:03.915Z,0.00
2019-06-25T02:27:03.897Z,0.00
2019-06-25T02:28:03.881Z,0.00
2019-06-25T02:29:24.861Z,0.00
2019-06-25T02:30:03.842Z,0.00
2019-06-25T02:31:08.087Z,0.00
2019-06-25T02:32:03.797Z,0.00
2019-06-25T02:33:03.780Z,0.00
2019-06-25T02:34:03.761Z,0.00
2019-06-25T02:35:24.743Z,0.00
2019-06-25T02:36:03.722Z,0.00
2019-06-25T02:37:03.699Z,0.00
2019-06-25T02:38:03.684Z,0.00
2019-06-25T02:39:03.662Z,0.00
2019-06-25T02:40:03.640Z,0.00
2019-06-25T02:41:24.643Z,0.00
2019-06-25T02:42:03.603Z,0.00
2019-06-25T02:43:03.590Z,0.00
2019-06-25T02:44:03.567Z,0.00
2019-06-25T02:45:03.553Z,0.00
2019-06-25T02:46:03.540Z,0.00
2019-06-25T02:47:24.512Z,0.00
2019-06-25T02:48:03.494Z,0.00
2019-06-25T02:49:03.468Z,0.00
2019-06-25T02:50:03.460Z,0.00
2019-06-25T02:51:03.428Z,5.63
2019-06-25T02:52:03.410Z,5.63
2019-06-25T02:53:24.398Z,5.63
2019-06-25T02:54:03.371Z,5.63
2019-06-25T02:55:03.351Z,5.63
2019-06-25T02:56:03.333Z,11.25
2019-06-25T02:57:03.337Z,11.25
2019-06-25T02:58:03.299Z,11.25
2019-06-25T02:59:24.278Z,11.25
2019-06-25T03:00:03.385Z,11.25
2019-06-25T03:01:03.244Z,11.25
2019-06-25T03:02:03.218Z,11.25
2019-06-25T03:03:03.202Z,11.25
2019-06-25T03:04:03.182Z,11.25
2019-06-25T03:05:24.156Z,16.88
2019-06-25T03:06:03.146Z,16.88
2019-06-25T03:07:03.128Z,16.88
2019-06-25T03:08:03.236Z,22.50
2019-06-25T03:09:03.084Z,22.50
2019-06-25T03:10:03.105Z,22.50
2019-06-25T03:11:24.044Z,28.13
2019-06-25T03:12:03.028Z,28.13
2019-06-25T03:13:03.007Z,28.13
2019-06-25T03:14:03.014Z,28.13
2019-06-25T03:15:02.969Z,33.75
2019-06-25T03:16:02.959Z,33.75
2019-06-25T03:17:23.968Z,33.75
2019-06-25T03:18:03.021Z,39.38
2019-06-25T03:19:02.896Z,39.38
2019-06-25T03:20:02.869Z,45.00
2019-06-25T03:21:02.850Z,45.00
2019-06-25T03:22:02.828Z,50.63
2019-06-25T03:23:23.811Z,56.25
2019-06-25T03:24:02.794Z,56.25
2019-06-25T03:25:02.772Z,61.88
2019-06-25T03:26:02.764Z,67.50
2019-06-25T03:27:02.826Z,67.50
2019-06-25T03:28:02.714Z,73.13
2019-06-25T03:29:23.696Z,78.75
2019-06-25T03:30:02.940Z,84.38
2019-06-25T03:31:02.663Z,84.38
2019-06-25T03:32:08.087Z,90.00
2019-06-25T03:33:02.616Z,95.63
2019-06-25T03:34:02.594Z,95.63
2019-06-25T03:35:23.573Z,101.25
2019-06-25T03:36:02.567Z,106.88
2019-06-25T03:37:02.535Z,112.50
2019-06-25T03:38:02.532Z,118.13
2019-06-25T03:39:02.500Z,118.13
2019-06-25T03:40:02.485Z,123.75
2019-06-25T03:41:23.463Z,129.38
2019-06-25T03:42:02.440Z,135.00
2019-06-25T03:43:02.422Z,140.63
2019-06-25T03:44:02.408Z,146.25
2019-06-25T03:45:02.413Z,146.25
2019-06-25T03:46:02.363Z,151.88
2019-06-25T03:47:23.339Z,157.50
2019-06-25T03:48:02.331Z,157.50
2019-06-25T03:49:02.307Z,163.13
2019-06-25T03:50:02.284Z,168.75
2019-06-25T03:51:02.264Z,174.38
2019-06-25T03:52:02.305Z,174.38
2019-06-25T03:53:23.227Z,180.00
2019-06-25T03:54:02.207Z,185.63
2019-06-25T03:55:02.194Z,191.25
2019-06-25T03:56:02.167Z,196.88
2019-06-25T03:57:02.148Z,196.88
2019-06-25T03:58:02.124Z,202.50
2019-06-25T03:59:23.113Z,208.13
2019-06-25T04:00:02.301Z,219.38
2019-06-25T04:01:02.236Z,225.00
2019-06-25T04:02:16.361Z,225.00
2019-06-25T04:03:02.298Z,230.63
2019-06-25T04:04:02.014Z,225.00
2019-06-25T04:05:22.996Z,219.38
2019-06-25T04:06:01.997Z,225.00
2019-06-25T04:07:01.957Z,236.25
2019-06-25T04:08:01.934Z,241.88
2019-06-25T04:09:01.915Z,253.13
2019-06-25T04:10:01.900Z,253.13
2019-06-25T04:11:22.883Z,258.75
2019-06-25T04:12:01.863Z,270.00
2019-06-25T04:13:01.841Z,281.25
2019-06-25T04:14:01.823Z,292.50
2019-06-25T04:15:01.801Z,298.13
2019-06-25T04:16:01.785Z,298.13
2019-06-25T04:17:22.766Z,303.75
2019-06-25T04:18:01.746Z,309.38
2019-06-25T04:19:01.754Z,315.00
2019-06-25T04:20:01.795Z,326.25
2019-06-25T04:21:01.911Z,331.88
2019-06-25T04:22:01.699Z,343.13
2019-06-25T04:23:22.656Z,348.75
2019-06-25T04:24:01.643Z,360.00
2019-06-25T04:25:01.619Z,360.00
2019-06-25T04:26:01.598Z,365.63
2019-06-25T04:27:01.582Z,371.25
2019-06-25T04:28:01.565Z,371.25
2019-06-25T04:29:22.544Z,382.50
2019-06-25T04:30:01.524Z,388.13
2019-06-25T04:31:01.504Z,393.75
2019-06-25T04:32:01.489Z,393.75
2019-06-25T04:33:01.471Z,388.13
2019-06-25T04:34:01.449Z,393.75
2019-06-25T04:35:22.435Z,405.00
2019-06-25T04:36:01.413Z,410.63
2019-06-25T04:37:01.404Z,416.25
2019-06-25T04:38:01.383Z,421.88
2019-06-25T04:39:01.356Z,438.75
2019-06-25T04:40:01.339Z,450.00
2019-06-25T04:41:22.326Z,455.63
2019-06-25T04:42:01.302Z,455.63
2019-06-25T04:43:01.283Z,450.00
2019-06-25T04:44:01.269Z,450.00
2019-06-25T04:45:01.249Z,455.63
2019-06-25T04:46:01.233Z,466.88
2019-06-25T04:47:22.217Z,478.13
2019-06-25T04:48:01.202Z,489.38
2019-06-25T04:49:01.179Z,500.63
2019-06-25T04:50:01.162Z,517.50
2019-06-25T04:51:01.165Z,517.50
2019-06-25T04:52:01.127Z,511.88
2019-06-25T04:53:22.136Z,506.25
2019-06-25T04:54:01.096Z,500.63
2019-06-25T04:55:01.073Z,500.63
2019-06-25T04:56:01.067Z,500.63
2019-06-25T04:57:01.043Z,506.25
2019-06-25T04:58:01.022Z,511.88
2019-06-25T04:59:22.011Z,506.25
2019-06-25T05:00:00.989Z,500.63
2019-06-25T05:01:00.975Z,506.25
2019-06-25T05:02:00.955Z,500.63
2019-06-25T05:03:00.941Z,511.88
2019-06-25T05:04:00.928Z,528.75
2019-06-25T05:05:21.910Z,534.38
2019-06-25T05:06:00.890Z,562.50
2019-06-25T05:07:00.881Z,568.13
2019-06-25T05:08:01.560Z,562.50
2019-06-25T05:09:00.868Z,551.25
2019-06-25T05:10:00.830Z,545.63
2019-06-25T05:11:21.840Z,551.25
2019-06-25T05:12:00.795Z,551.25
2019-06-25T05:13:00.781Z,545.63
2019-06-25T05:14:00.763Z,556.88
2019-06-25T05:15:00.743Z,568.13
2019-06-25T05:16:00.727Z,579.38
2019-06-25T05:17:21.716Z,590.63
2019-06-25T05:18:00.706Z,601.88
2019-06-25T05:19:00.680Z,613.13
2019-06-25T05:20:00.665Z,630.00
2019-06-25T05:21:00.661Z,641.25
2019-06-25T05:22:00.635Z,652.50
2019-06-25T05:23:21.624Z,658.13
2019-06-25T05:24:00.606Z,658.13
2019-06-25T05:25:00.606Z,663.75
2019-06-25T05:26:00.569Z,680.63
2019-06-25T05:27:00.564Z,680.63
2019-06-25T05:28:00.538Z,675.00
2019-06-25T05:29:21.529Z,646.88
2019-06-25T05:30:00.508Z,635.63
2019-06-25T05:31:00.496Z,630.00
2019-06-25T05:32:00.481Z,635.63
2019-06-25T05:33:05.510Z,641.25
2019-06-25T05:34:00.450Z,641.25
2019-06-25T05:35:23.452Z,630.00
2019-06-25T05:36:00.444Z,624.38
2019-06-25T05:37:00.409Z,624.38
2019-06-25T05:38:00.399Z,618.75
2019-06-25T05:39:00.401Z,618.75
2019-06-25T05:40:00.364Z,624.38
2019-06-25T05:41:21.349Z,635.63
2019-06-25T05:42:00.337Z,646.88
2019-06-25T05:43:00.316Z,669.38
2019-06-25T05:44:00.300Z,691.88
2019-06-25T05:45:00.286Z,742.50
2019-06-25T05:46:00.320Z,815.63
2019-06-25T05:47:21.265Z,838.13
2019-06-25T05:48:00.286Z,821.25
2019-06-25T05:49:00.226Z,759.38
2019-06-25T05:50:00.216Z,731.25
2019-06-25T05:51:00.248Z,736.88
2019-06-25T05:52:00.229Z,742.50
2019-06-25T05:53:21.179Z,753.75
2019-06-25T05:54:00.173Z,742.50
2019-06-25T05:55:00.164Z,793.13
2019-06-25T05:56:00.223Z,894.38
2019-06-25T05:57:00.121Z,905.63
2019-06-25T05:58:00.099Z,1012.50
2019-06-25T05:59:21.094Z,1018.13
2019-06-25T06:00:00.078Z,1051.88
2019-06-25T06:01:00.060Z,1068.75
2019-06-25T06:02:00.044Z,1068.75
2019-06-25T06:03:00.033Z,1057.50
2019-06-25T06:04:00.035Z,1068.75
2019-06-25T06:05:21.017Z,1035.00
2019-06-25T06:05:59.995Z,1063.13
2019-06-25T06:06:59.980Z,1136.25
2019-06-25T06:07:59.969Z,1299.38
2019-06-25T06:08:59.958Z,1395.00
2019-06-25T06:09:59.947Z,1406.25
2019-06-25T06:11:20.936Z,1350.00
2019-06-25T06:11:59.921Z,1237.50
2019-06-25T06:12:59.908Z,1170.00
2019-06-25T06:13:59.898Z,1141.88
2019-06-25T06:14:59.883Z,1192.50
2019-06-25T06:15:59.878Z,1181.25
2019-06-25T06:17:20.871Z,1091.25
2019-06-25T06:17:59.851Z,1085.63
2019-06-25T06:18:59.839Z,1130.63
2019-06-25T06:19:59.829Z,1203.75
2019-06-25T06:20:59.819Z,1192.50
2019-06-25T06:21:59.804Z,1158.75
2019-06-25T06:23:20.811Z,1316.25
2019-06-25T06:23:59.786Z,1445.63
2019-06-25T06:24:59.775Z,1400.63
2019-06-25T06:25:59.758Z,1462.50
2019-06-25T06:26:59.754Z,1614.38
2019-06-25T06:27:59.743Z,1586.25
2019-06-25T06:29:20.732Z,1513.13
2019-06-25T06:29:59.718Z,1395.00
2019-06-25T06:31:15.486Z,1451.25
2019-06-25T06:31:59.696Z,1513.13
2019-06-25T06:32:59.684Z,1473.75
2019-06-25T06:33:59.674Z,1524.38
2019-06-25T06:35:20.744Z,1597.50
2019-06-25T06:35:59.758Z,1524.38
2019-06-25T06:36:59.644Z,1389.38
2019-06-25T06:37:59.644Z,1181.25
2019-06-25T06:38:59.631Z,1299.38
2019-06-25T06:39:59.615Z,1620.00
2019-06-25T06:41:20.613Z,1906.88
2019-06-25T06:41:59.597Z,2143.13
2019-06-25T06:42:59.593Z,2165.63
2019-06-25T06:43:59.573Z,2131.88
2019-06-25T06:44:59.583Z,2199.38
2019-06-25T06:45:59.552Z,2250.00
2019-06-25T06:47:20.553Z,2182.50
2019-06-25T06:47:59.538Z,2154.38
2019-06-25T06:48:59.527Z,2255.63
2019-06-25T06:49:59.515Z,2188.13
2019-06-25T06:50:59.514Z,2295.00
2019-06-25T06:51:59.496Z,2053.13
2019-06-25T06:53:20.499Z,2255.63
2019-06-25T06:53:59.515Z,2238.75
2019-06-25T06:54:59.481Z,2385.00
2019-06-25T06:55:59.462Z,2373.75
2019-06-25T06:56:59.455Z,2368.13
2019-06-25T06:57:59.440Z,2317.50
2019-06-25T06:59:20.446Z,2328.75
2019-06-25T06:59:59.426Z,2351.25
2019-06-25T07:00:59.886Z,2328.75
2019-06-25T07:01:59.409Z,2233.13
2019-06-25T07:03:01.763Z,2401.88
2019-06-25T07:03:59.405Z,2233.13
2019-06-25T07:05:20.393Z,2064.38
2019-06-25T07:05:59.377Z,1963.13
2019-06-25T07:06:59.369Z,1828.13
2019-06-25T07:07:59.410Z,1822.50
2019-06-25T07:08:59.351Z,1597.50
2019-06-25T07:09:59.348Z,1805.63
2019-06-25T07:11:20.339Z,1777.50
2019-06-25T07:11:59.330Z,1839.38
2019-06-25T07:12:59.326Z,1811.25
2019-06-25T07:13:59.309Z,1861.88
2019-06-25T07:14:59.308Z,1996.88
2019-06-25T07:15:59.293Z,1991.25
2019-06-25T07:17:20.293Z,2041.88
2019-06-25T07:17:59.282Z,2497.50
2019-06-25T07:18:59.261Z,2745.00
2019-06-25T07:19:59.259Z,2761.88
2019-06-25T07:20:59.252Z,2835.00
2019-06-25T07:21:59.297Z,2745.00
2019-06-25T07:23:20.246Z,2565.00
2019-06-25T07:23:59.227Z,2598.75
2019-06-25T07:24:59.222Z,2632.50
2019-06-25T07:25:59.206Z,2491.88
2019-06-25T07:26:59.201Z,2694.38
2019-06-25T07:27:59.192Z,2975.63
2019-06-25T07:29:20.192Z,3076.88
2019-06-25T07:29:59.174Z,3037.50
2019-06-25T07:30:59.173Z,3015.00
2019-06-25T07:31:59.158Z,2958.75
2019-06-25T07:32:59.180Z,2767.50
2019-06-25T07:34:08.914Z,2846.25
2019-06-25T07:35:20.148Z,2885.63
2019-06-25T07:35:59.133Z,3015.00
2019-06-25T07:36:59.123Z,3020.63
2019-06-25T07:37:59.113Z,3043.13
2019-06-25T07:38:59.111Z,3183.75
2019-06-25T07:39:59.097Z,3256.88
2019-06-25T07:41:20.107Z,3155.63
2019-06-25T07:41:59.095Z,2840.63
2019-06-25T07:42:59.079Z,2773.13
2019-06-25T07:43:59.071Z,2801.25
2019-06-25T07:44:59.063Z,2846.25
2019-06-25T07:45:59.064Z,2750.63
2019-06-25T07:47:20.058Z,2784.38
2019-06-25T07:47:59.045Z,2880.00
2019-06-25T07:48:59.045Z,2981.25
2019-06-25T07:49:59.043Z,2970.00
2019-06-25T07:50:59.030Z,2992.50
2019-06-25T07:51:59.018Z,3161.25
2019-06-25T07:53:20.013Z,3071.25
2019-06-25T07:53:59.001Z,2880.00
2019-06-25T07:54:58.996Z,3003.75
2019-06-25T07:55:58.993Z,2970.00
2019-06-25T07:56:59.025Z,2975.63
2019-06-25T07:57:58.975Z,2981.25
2019-06-25T07:59:19.979Z,3043.13
2019-06-25T07:59:58.979Z,2908.13
2019-06-25T08:00:58.969Z,2981.25
2019-06-25T08:01:59.035Z,2998.13
2019-06-25T08:02:58.944Z,2998.13
2019-06-25T08:03:58.935Z,2947.50
2019-06-25T08:05:19.937Z,3037.50
2019-06-25T08:05:58.926Z,3290.63
2019-06-25T08:06:58.917Z,3397.50
2019-06-25T08:07:58.912Z,3510.00
2019-06-25T08:08:58.907Z,3397.50
2019-06-25T08:09:58.895Z,3363.75
2019-06-25T08:11:19.898Z,3178.13
2019-06-25T08:11:58.890Z,3211.88
2019-06-25T08:12:58.879Z,3290.63
2019-06-25T08:13:58.877Z,3228.75
2019-06-25T08:14:58.868Z,3240.00
2019-06-25T08:15:58.863Z,3144.38
2019-06-25T08:17:19.870Z,3273.75
2019-06-25T08:17:58.846Z,3217.50
2019-06-25T08:18:58.845Z,3093.75
2019-06-25T08:19:58.835Z,2891.25
2019-06-25T08:20:58.828Z,2936.25
2019-06-25T08:21:58.841Z,2953.13
2019-06-25T08:23:19.825Z,2891.25
2019-06-25T08:23:58.819Z,2947.50
2019-06-25T08:24:58.807Z,2992.50
2019-06-25T08:25:58.835Z,3127.50
2019-06-25T08:26:58.795Z,3088.13
2019-06-25T08:27:58.785Z,3217.50
2019-06-25T08:29:19.788Z,3459.38
2019-06-25T08:29:58.774Z,3555.00
2019-06-25T08:30:58.770Z,3628.13
2019-06-25T08:31:58.763Z,3616.88
2019-06-25T08:32:58.768Z,3628.13
2019-06-25T08:33:58.752Z,3498.75
2019-06-25T08:35:19.757Z,3403.13
2019-06-25T08:35:58.748Z,3324.38
2019-06-25T08:36:58.781Z,3346.88
2019-06-25T08:37:58.735Z,3459.38
2019-06-25T08:38:58.733Z,3515.63
2019-06-25T08:39:58.726Z,3532.50
2019-06-25T08:41:19.726Z,3510.00
2019-06-25T08:41:58.712Z,3465.00
2019-06-25T08:42:58.716Z,3425.63
2019-06-25T08:43:58.704Z,3397.50
2019-06-25T08:44:58.698Z,3543.75
2019-06-25T08:45:58.692Z,3526.88
2019-06-25T08:47:19.696Z,3560.63
2019-06-25T08:47:58.682Z,3470.63
2019-06-25T08:48:58.678Z,3363.75
2019-06-25T08:49:58.674Z,3375.00
2019-06-25T08:50:58.669Z,3470.63
2019-06-25T08:51:58.663Z,3420.00
2019-06-25T08:53:19.669Z,3465.00
2019-06-25T08:53:58.654Z,3616.88
2019-06-25T08:54:58.652Z,3583.13
2019-06-25T08:55:58.645Z,3510.00
2019-06-25T08:56:58.643Z,3571.88
2019-06-25T08:57:58.642Z,3740.63
2019-06-25T08:59:19.640Z,3768.75
2019-06-25T08:59:58.630Z,3785.63
2019-06-25T09:00:58.624Z,3870.00
2019-06-25T09:01:58.619Z,3915.00
2019-06-25T09:02:58.634Z,3881.25
2019-06-25T09:03:58.615Z,3875.63
2019-06-25T09:05:19.618Z,3931.88
2019-06-25T09:05:58.611Z,3943.13
2019-06-25T09:06:58.604Z,4061.25
2019-06-25T09:07:58.599Z,4044.38
2019-06-25T09:08:58.598Z,4162.50
2019-06-25T09:09:58.620Z,4027.50
2019-06-25T09:11:19.594Z,3971.25
2019-06-25T09:11:58.584Z,4235.63
2019-06-25T09:12:58.585Z,4224.38
2019-06-25T09:13:58.580Z,4128.75
2019-06-25T09:14:58.570Z,4089.38
2019-06-25T09:15:58.573Z,4089.38
2019-06-25T09:17:19.579Z,4021.88
2019-06-25T09:17:58.560Z,3931.88
2019-06-25T09:18:58.557Z,4061.25
2019-06-25T09:19:58.620Z,3948.75
2019-06-25T09:20:58.553Z,4083.75
2019-06-25T09:21:58.554Z,4179.38
2019-06-25T09:23:19.549Z,4348.13
2019-06-25T09:23:58.542Z,4393.13
2019-06-25T09:24:58.538Z,4370.63
2019-06-25T09:25:58.531Z,4365.00
2019-06-25T09:26:58.529Z,4331.25
2019-06-25T09:27:58.521Z,4455.00
2019-06-25T09:29:19.578Z,4488.75
2019-06-25T09:29:58.526Z,4545.00
2019-06-25T09:30:58.521Z,4590.00
2019-06-25T09:31:58.510Z,4618.13
2019-06-25T09:32:58.517Z,4635.00
2019-06-25T09:33:58.502Z,4747.50
2019-06-25T09:35:20.365Z,4770.00
2019-06-25T09:35:58.498Z,4831.88
2019-06-25T09:36:58.498Z,4606.88
2019-06-25T09:37:58.495Z,4882.50
2019-06-25T09:38:58.489Z,4140.00
2019-06-25T09:39:58.777Z,4443.75
2019-06-25T09:41:19.489Z,3999.38
2019-06-25T09:41:58.478Z,4438.13
2019-06-25T09:42:58.487Z,4246.88
2019-06-25T09:44:00.491Z,4471.88
2019-06-25T09:44:58.474Z,4584.38
2019-06-25T09:45:58.498Z,4539.38
2019-06-25T09:47:19.468Z,4528.13
2019-06-25T09:47:58.464Z,4601.25
2019-06-25T09:48:58.460Z,4438.13
2019-06-25T09:49:58.454Z,4494.38
2019-06-25T09:50:58.463Z,4567.50
2019-06-25T09:51:58.452Z,4680.00
2019-06-25T09:53:21.972Z,4758.75
2019-06-25T09:53:58.447Z,4798.13
2019-06-25T09:54:58.529Z,4933.13
2019-06-25T09:55:58.517Z,3791.25
2019-06-25T09:56:58.432Z,5085.00
2019-06-25T09:57:58.435Z,5146.88
2019-06-25T09:59:19.430Z,5259.38
2019-06-25T09:59:58.419Z,4950.00
2019-06-25T10:00:58.414Z,5310.00
2019-06-25T10:01:58.413Z,5310.00
2019-06-25T10:02:58.410Z,5338.13
2019-06-25T10:03:58.405Z,5343.75
2019-06-25T10:05:30.918Z,5411.25
2019-06-25T10:05:58.396Z,5411.25
2019-06-25T10:06:58.397Z,5478.75
2019-06-25T10:07:58.391Z,5529.38
2019-06-25T10:08:58.393Z,5506.88
2019-06-25T10:09:58.388Z,5540.63
2019-06-25T10:11:19.395Z,4640.63
2019-06-25T10:11:58.381Z,5231.25
2019-06-25T10:12:58.383Z,5090.63
2019-06-25T10:13:58.379Z,5180.63
2019-06-25T10:14:58.377Z,5287.50
2019-06-25T10:15:58.369Z,5540.63
2019-06-25T10:17:19.379Z,5647.50
2019-06-25T10:17:58.365Z,5731.88
2019-06-25T10:18:58.372Z,5799.38
2019-06-25T10:19:58.358Z,5810.63
2019-06-25T10:20:58.378Z,5838.75
2019-06-25T10:21:58.353Z,5861.25
2019-06-25T10:23:19.359Z,5861.25
2019-06-25T10:23:58.353Z,5833.13
2019-06-25T10:24:58.359Z,5816.25
2019-06-25T10:25:58.348Z,5782.50
2019-06-25T10:26:58.337Z,5698.13
2019-06-25T10:27:58.348Z,5636.25
2019-06-25T10:29:19.341Z,5596.88
2019-06-25T10:29:58.346Z,5518.13
2019-06-25T10:30:58.333Z,5445.00
2019-06-25T10:31:58.332Z,5433.75
2019-06-25T10:32:58.334Z,5371.88
2019-06-25T10:33:58.337Z,5006.25
2019-06-25T10:35:19.336Z,5203.13
2019-06-25T10:35:58.313Z,5135.63
2019-06-25T10:36:58.421Z,5073.75
2019-06-25T10:37:58.312Z,4995.00
2019-06-25T10:38:58.346Z,4905.00
2019-06-25T10:39:58.303Z,4809.38
2019-06-25T10:41:19.318Z,4736.25
2019-06-25T10:41:58.346Z,4702.50
2019-06-25T10:42:58.292Z,4741.88
2019-06-25T10:43:58.322Z,4719.38
2019-06-25T10:44:58.292Z,4770.00
2019-06-25T10:45:58.292Z,4820.63
2019-06-25T10:47:19.297Z,4865.63
2019-06-25T10:47:58.285Z,4882.50
2019-06-25T10:48:58.349Z,4921.88
2019-06-25T10:49:58.281Z,4820.63
2019-06-25T10:50:58.275Z,4561.88
2019-06-25T10:51:58.287Z,4623.75
2019-06-25T10:53:19.285Z,4753.13
2019-06-25T10:53:58.292Z,5017.50
2019-06-25T10:54:58.279Z,5023.13
2019-06-25T10:55:58.308Z,4927.50
2019-06-25T10:56:58.270Z,4848.75
2019-06-25T10:57:58.409Z,4533.75
2019-06-25T10:59:19.272Z,4168.13
2019-06-25T10:59:58.259Z,4365.00
2019-06-25T11:00:58.258Z,4567.50
2019-06-25T11:01:58.279Z,4393.13
2019-06-25T11:02:58.250Z,4646.25
2019-06-25T11:03:58.249Z,4635.00
2019-06-25T11:05:19.254Z,4443.75
2019-06-25T11:06:05.825Z,4235.63
2019-06-25T11:07:06.109Z,4297.50
2019-06-25T11:07:58.234Z,4218.75
2019-06-25T11:08:58.236Z,4336.88
2019-06-25T11:09:58.228Z,4370.63
2019-06-25T11:11:58.326Z,4027.50
2019-06-25T11:12:58.257Z,3684.38
2019-06-25T11:14:07.695Z,3667.50
2019-06-25T11:14:58.246Z,3825.00
2019-06-25T11:15:58.232Z,3808.13
2019-06-25T11:18:29.898Z,4083.75
2019-06-25T11:21:22.815Z,4460.63
2019-06-25T11:22:22.761Z,4680.00
2019-06-25T11:23:22.760Z,4550.63
2019-06-25T11:24:22.771Z,4443.75
2019-06-25T11:25:22.748Z,4438.13
2019-06-25T11:26:23.812Z,4561.88
2019-06-25T11:27:22.741Z,4803.75
2019-06-25T11:28:22.735Z,5006.25
2019-06-25T11:29:22.736Z,5051.25
2019-06-25T11:30:22.730Z,5169.38
2019-06-25T11:31:22.720Z,5186.25
2019-06-25T11:32:22.723Z,5259.38
2019-06-25T11:33:22.725Z,5056.88
2019-06-25T11:34:22.759Z,4989.38
2019-06-25T11:35:22.724Z,4848.75
2019-06-25T11:36:22.711Z,4539.38
2019-06-25T11:37:22.728Z,4573.13
2019-06-25T11:38:22.707Z,4646.25
2019-06-25T11:39:22.726Z,4792.50
2019-06-25T11:40:22.716Z,4657.50
2019-06-25T11:41:22.699Z,4539.38
2019-06-25T11:42:22.694Z,4674.38
2019-06-25T11:43:22.714Z,4702.50
2019-06-25T11:44:22.691Z,4826.25
2019-06-25T11:45:22.727Z,4708.13
2019-06-25T11:46:22.691Z,4798.13
2019-06-25T11:47:22.681Z,4950.00
2019-06-25T11:48:22.695Z,4809.38
2019-06-25T11:49:22.684Z,4702.50
2019-06-25T11:50:22.673Z,4730.63
2019-06-25T11:51:22.675Z,4747.50
2019-06-25T11:52:22.675Z,4539.38
2019-06-25T11:53:22.656Z,4336.88
2019-06-25T11:54:22.675Z,4404.38
2019-06-25T11:55:22.662Z,4798.13
2019-06-25T11:56:22.659Z,4561.88
2019-06-25T11:57:22.655Z,4393.13
2019-06-25T11:58:22.651Z,5040.00
2019-06-25T11:59:22.651Z,5062.50
2019-06-25T12:00:22.647Z,5169.38
2019-06-25T12:01:22.663Z,4978.13
2019-06-25T12:02:22.645Z,4893.75
2019-06-25T12:03:22.638Z,4876.88
2019-06-25T12:04:22.684Z,5208.75
2019-06-25T12:05:22.634Z,5045.63
2019-06-25T12:06:33.324Z,5079.38
2019-06-25T12:07:22.630Z,5253.75
2019-06-25T12:08:22.628Z,5186.25
2019-06-25T12:09:22.624Z,5270.63
2019-06-25T12:10:22.628Z,5197.50
2019-06-25T12:11:22.619Z,5146.88
2019-06-25T12:12:22.615Z,5326.88
2019-06-25T12:13:22.616Z,5315.63
2019-06-25T12:14:22.614Z,5242.50
2019-06-25T12:15:22.612Z,5304.38
2019-06-25T12:16:22.611Z,5225.63
2019-06-25T12:17:22.602Z,5152.50
2019-06-25T12:18:22.606Z,5073.75
2019-06-25T12:19:22.592Z,5062.50
2019-06-25T12:20:22.596Z,4978.13
2019-06-25T12:21:22.594Z,4848.75
2019-06-25T12:22:22.594Z,4938.75
2019-06-25T12:23:22.594Z,4978.13
2019-06-25T12:24:22.590Z,5017.50
2019-06-25T12:25:22.584Z,5073.75
2019-06-25T12:26:22.590Z,5130.00
2019-06-25T12:27:22.582Z,5146.88
2019-06-25T12:28:22.583Z,5118.75
2019-06-25T12:29:22.579Z,5231.25
2019-06-25T12:30:22.575Z,4989.38
2019-06-25T12:31:22.573Z,4865.63
2019-06-25T12:32:22.576Z,4843.13